createdAt,value
2022-11-27T00:00:17.205Z,54.50
2022-11-27T00:01:17.197Z,76.90
2022-11-27T00:02:17.231Z,58.10
2022-11-27T00:03:17.330Z,67.60
2022-11-27T00:04:17.307Z,63.30
2022-11-27T00:05:17.177Z,54.70
2022-11-27T00:06:17.140Z,59.10
2022-11-27T00:07:17.210Z,70.70
2022-11-27T00:08:17.120Z,96.10
2022-11-27T00:09:17.173Z,76.60
2022-11-27T00:10:17.102Z,94.90
2022-11-27T00:11:17.086Z,67.90
2022-11-27T00:12:17.099Z,61.00
2022-11-27T00:13:17.061Z,77.60
2022-11-27T00:14:17.058Z,68.50
2022-11-27T00:15:17.470Z,61.50
2022-11-27T00:16:17.200Z,55.90
2022-11-27T00:17:17.016Z,75.00
2022-11-27T00:18:17.007Z,82.10
2022-11-27T00:19:17.122Z,73.70
2022-11-27T00:20:16.984Z,73.70
2022-11-27T00:21:16.974Z,67.00
2022-11-27T00:22:16.963Z,81.80
2022-11-27T00:23:16.948Z,105.50
2022-11-27T00:24:16.938Z,96.20
2022-11-27T00:25:16.930Z,109.60
2022-11-27T00:26:17.065Z,64.60
2022-11-27T00:27:16.907Z,67.50
2022-11-27T00:28:16.893Z,72.10
2022-11-27T00:29:16.886Z,70.70
2022-11-27T00:30:16.873Z,74.10
2022-11-27T00:31:16.930Z,63.60
2022-11-27T00:32:16.854Z,78.70
2022-11-27T00:33:16.843Z,101.90
2022-11-27T00:34:16.828Z,59.40
2022-11-27T00:35:16.850Z,66.10
2022-11-27T00:36:16.813Z,56.30
2022-11-27T00:37:16.792Z,73.20
2022-11-27T00:38:16.782Z,96.90
2022-11-27T00:39:16.777Z,71.60
2022-11-27T00:40:16.765Z,58.00
2022-11-27T00:41:16.759Z,64.90
2022-11-27T00:42:16.771Z,57.70
2022-11-27T00:43:16.727Z,70.00
2022-11-27T00:44:16.719Z,76.80
2022-11-27T00:45:16.705Z,67.80
2022-11-27T00:46:16.799Z,61.30
2022-11-27T00:47:16.684Z,69.90
2022-11-27T00:48:16.673Z,85.60
2022-11-27T00:49:16.657Z,64.20
2022-11-27T00:50:16.651Z,72.20
2022-11-27T00:51:16.663Z,89.00
2022-11-27T00:52:16.628Z,102.10
2022-11-27T00:53:16.622Z,89.60
2022-11-27T00:54:16.610Z,56.40
2022-11-27T00:55:16.593Z,59.10
2022-11-27T00:56:16.584Z,70.20
2022-11-27T00:57:16.574Z,62.90
2022-11-27T00:58:16.559Z,75.50
2022-11-27T00:59:16.549Z,57.00
2022-11-27T01:00:16.538Z,59.70
2022-11-27T01:01:16.582Z,61.20
2022-11-27T01:02:16.610Z,61.70
2022-11-27T01:03:16.641Z,52.80
2022-11-27T01:04:16.495Z,61.40
2022-11-27T01:05:16.482Z,70.80
2022-11-27T01:06:16.472Z,58.30
2022-11-27T01:07:16.570Z,76.20
2022-11-27T01:08:16.449Z,62.00
2022-11-27T01:09:16.444Z,50.70
2022-11-27T01:10:16.430Z,54.80
2022-11-27T01:11:16.419Z,55.60
2022-11-27T01:12:16.406Z,51.40
2022-11-27T01:13:16.391Z,63.60
2022-11-27T01:14:16.386Z,80.60
2022-11-27T01:15:16.372Z,62.50
2022-11-27T01:16:16.472Z,52.20
2022-11-27T01:17:16.347Z,56.00
2022-11-27T01:18:16.342Z,57.70
2022-11-27T01:19:16.348Z,66.20
2022-11-27T01:20:16.316Z,55.40
2022-11-27T01:21:16.303Z,60.40
2022-11-27T01:22:16.293Z,52.50
2022-11-27T01:23:16.302Z,53.80
2022-11-27T01:24:16.275Z,57.60
2022-11-27T01:25:16.263Z,49.20
2022-11-27T01:26:16.247Z,61.00
2022-11-27T01:27:16.234Z,49.10
2022-11-27T01:28:16.225Z,71.20
2022-11-27T01:29:16.213Z,53.30
2022-11-27T01:30:16.205Z,48.60
2022-11-27T01:31:16.255Z,79.70
2022-11-27T01:32:16.183Z,53.20
2022-11-27T01:33:16.168Z,56.20
2022-11-27T01:34:16.167Z,66.20
2022-11-27T01:35:16.145Z,62.40
2022-11-27T01:36:16.143Z,60.60
2022-11-27T01:37:16.125Z,60.40
2022-11-27T01:38:16.114Z,70.80
2022-11-27T01:39:16.129Z,78.10
2022-11-27T01:40:16.094Z,60.80
2022-11-27T01:41:16.082Z,56.10
2022-11-27T01:42:16.070Z,70.00
2022-11-27T01:43:16.058Z,65.20
2022-11-27T01:44:16.048Z,63.60
2022-11-27T01:45:16.037Z,85.40
2022-11-27T01:46:16.081Z,46.40
2022-11-27T01:47:16.015Z,58.30
2022-11-27T01:48:16.009Z,77.40
2022-11-27T01:49:15.989Z,70.20
2022-11-27T01:50:16.184Z,82.20
2022-11-27T01:51:15.971Z,48.60
2022-11-27T01:52:15.957Z,47.70
2022-11-27T01:53:15.948Z,50.10
2022-11-27T01:54:15.936Z,52.00
2022-11-27T01:55:15.948Z,50.30
2022-11-27T01:56:15.914Z,58.20
2022-11-27T01:57:15.900Z,49.10
2022-11-27T01:58:15.891Z,51.70
2022-11-27T01:59:15.879Z,43.70
2022-11-27T02:00:15.869Z,54.70
2022-11-27T02:01:15.978Z,52.80
2022-11-27T02:02:15.962Z,76.10
2022-11-27T02:03:15.950Z,59.40
2022-11-27T02:04:15.824Z,51.30
2022-11-27T02:05:15.813Z,53.90
2022-11-27T02:06:15.804Z,40.30
2022-11-27T02:07:15.835Z,58.80
2022-11-27T02:08:15.782Z,48.50
2022-11-27T02:09:15.771Z,43.20
2022-11-27T02:10:15.755Z,42.70
2022-11-27T02:11:15.769Z,42.40
2022-11-27T02:12:15.736Z,66.30
2022-11-27T02:13:15.723Z,45.20
2022-11-27T02:14:15.713Z,37.40
2022-11-27T02:15:15.698Z,47.00
2022-11-27T02:16:18.172Z,43.20
2022-11-27T02:17:15.679Z,42.30
2022-11-27T02:18:15.666Z,36.20
2022-11-27T02:19:15.657Z,44.60
2022-11-27T02:20:15.645Z,39.00
2022-11-27T02:21:15.635Z,37.70
2022-11-27T02:22:15.619Z,35.50
2022-11-27T02:23:15.608Z,33.90
2022-11-27T02:24:15.596Z,41.30
2022-11-27T02:25:15.586Z,40.80
2022-11-27T02:26:15.574Z,45.60
2022-11-27T02:27:15.566Z,35.50
2022-11-27T02:28:15.552Z,47.80
2022-11-27T02:29:15.542Z,47.60
2022-11-27T02:30:15.528Z,39.00
2022-11-27T02:31:15.598Z,40.00
2022-11-27T02:32:15.505Z,34.20
2022-11-27T02:33:15.494Z,40.70
2022-11-27T02:34:15.487Z,37.10
2022-11-27T02:35:15.471Z,41.20
2022-11-27T02:36:15.460Z,45.40
2022-11-27T02:37:15.448Z,61.70
2022-11-27T02:38:15.438Z,44.50
2022-11-27T02:39:15.424Z,41.40
2022-11-27T02:40:15.411Z,53.60
2022-11-27T02:41:15.399Z,41.50
2022-11-27T02:42:15.512Z,56.10
2022-11-27T02:43:15.378Z,39.40
2022-11-27T02:44:15.365Z,49.60
2022-11-27T02:45:15.356Z,41.20
2022-11-27T02:46:15.380Z,38.40
2022-11-27T02:47:15.335Z,41.90
2022-11-27T02:48:15.323Z,45.60
2022-11-27T02:49:15.310Z,36.60
2022-11-27T02:50:15.302Z,40.70
2022-11-27T02:51:15.287Z,43.30
2022-11-27T02:52:15.275Z,40.50
2022-11-27T02:53:15.266Z,41.40
2022-11-27T02:54:15.255Z,41.70
2022-11-27T02:55:15.241Z,42.30
2022-11-27T02:56:15.232Z,45.30
2022-11-27T02:57:15.220Z,46.90
2022-11-27T02:58:15.326Z,40.40
2022-11-27T02:59:15.199Z,41.10
2022-11-27T03:00:15.186Z,37.90
2022-11-27T03:01:15.175Z,41.90
2022-11-27T03:02:15.273Z,46.30
2022-11-27T03:03:15.254Z,47.80
2022-11-27T03:04:15.141Z,45.90
2022-11-27T03:05:15.130Z,44.10
2022-11-27T03:06:15.117Z,40.90
2022-11-27T03:07:15.143Z,51.90
2022-11-27T03:08:15.101Z,46.80
2022-11-27T03:09:15.088Z,53.20
2022-11-27T03:10:15.076Z,44.10
2022-11-27T03:11:15.067Z,52.40
2022-11-27T03:12:15.056Z,42.00
2022-11-27T03:13:15.043Z,45.10
2022-11-27T03:14:15.146Z,48.20
2022-11-27T03:15:15.023Z,51.10
2022-11-27T03:16:15.036Z,46.80
2022-11-27T03:17:15.002Z,61.70
2022-11-27T03:18:14.989Z,63.60
2022-11-27T03:19:14.982Z,50.00
2022-11-27T03:20:14.967Z,61.20
2022-11-27T03:21:14.959Z,54.60
2022-11-27T03:22:14.946Z,48.30
2022-11-27T03:23:14.937Z,50.70
2022-11-27T03:24:14.922Z,51.10
2022-11-27T03:25:14.916Z,49.00
2022-11-27T03:26:14.901Z,57.40
2022-11-27T03:27:14.892Z,57.10
2022-11-27T03:28:14.880Z,62.10
2022-11-27T03:29:14.871Z,48.80
2022-11-27T03:30:14.981Z,74.60
2022-11-27T03:31:15.000Z,59.00
2022-11-27T03:32:14.852Z,58.60
2022-11-27T03:33:14.837Z,52.60
2022-11-27T03:34:14.819Z,79.80
2022-11-27T03:35:14.807Z,81.00
2022-11-27T03:36:14.800Z,57.90
2022-11-27T03:37:14.784Z,64.80
2022-11-27T03:38:14.774Z,72.20
2022-11-27T03:39:14.765Z,75.40
2022-11-27T03:40:14.749Z,57.50
2022-11-27T03:41:14.742Z,71.60
2022-11-27T03:42:14.729Z,70.30
2022-11-27T03:43:14.720Z,54.90
2022-11-27T03:44:14.710Z,66.10
2022-11-27T03:45:14.697Z,95.40
2022-11-27T03:46:14.865Z,67.20
2022-11-27T03:47:14.721Z,66.50
2022-11-27T03:48:14.665Z,86.70
2022-11-27T03:49:14.656Z,73.00
2022-11-27T03:50:14.650Z,85.80
2022-11-27T03:51:14.634Z,81.90
2022-11-27T03:52:14.622Z,85.40
2022-11-27T03:53:14.610Z,70.00
2022-11-27T03:54:14.600Z,66.10
2022-11-27T03:55:14.593Z,88.00
2022-11-27T03:56:14.580Z,77.50
2022-11-27T03:57:14.572Z,67.20
2022-11-27T03:58:14.555Z,67.40
2022-11-27T03:59:14.545Z,86.80
2022-11-27T04:00:14.540Z,64.40
2022-11-27T04:01:14.523Z,70.30
2022-11-27T04:02:14.714Z,57.70
2022-11-27T04:03:14.504Z,75.60
2022-11-27T04:04:14.601Z,57.50
2022-11-27T04:05:14.482Z,80.20
2022-11-27T04:06:14.471Z,82.70
2022-11-27T04:07:14.470Z,86.60
2022-11-27T04:08:14.448Z,65.90
2022-11-27T04:09:14.441Z,73.90
2022-11-27T04:10:14.423Z,69.60
2022-11-27T04:11:14.420Z,68.50
2022-11-27T04:12:14.404Z,83.70
2022-11-27T04:13:14.398Z,73.70
2022-11-27T04:14:14.384Z,71.60
2022-11-27T04:15:14.373Z,114.10
2022-11-27T04:16:14.459Z,113.90
2022-11-27T04:17:14.351Z,76.10
2022-11-27T04:18:14.459Z,78.40
2022-11-27T04:19:14.332Z,112.90
2022-11-27T04:20:14.323Z,105.70
2022-11-27T04:21:14.312Z,102.00
2022-11-27T04:22:14.296Z,79.70
2022-11-27T04:23:14.289Z,85.80
2022-11-27T04:24:14.273Z,84.40
2022-11-27T04:25:14.268Z,92.70
2022-11-27T04:26:14.256Z,102.70
2022-11-27T04:27:14.242Z,88.10
2022-11-27T04:28:14.233Z,92.00
2022-11-27T04:29:14.226Z,96.20
2022-11-27T04:30:14.213Z,104.10
2022-11-27T04:31:14.361Z,68.30
2022-11-27T04:32:14.190Z,86.00
2022-11-27T04:33:14.179Z,109.20
2022-11-27T04:34:14.289Z,91.30
2022-11-27T04:35:14.155Z,116.80
2022-11-27T04:36:14.144Z,137.30
2022-11-27T04:37:14.132Z,126.30
2022-11-27T04:38:14.125Z,89.10
2022-11-27T04:39:14.111Z,73.00
2022-11-27T04:40:14.097Z,104.80
2022-11-27T04:41:14.091Z,93.20
2022-11-27T04:42:14.078Z,93.30
2022-11-27T04:43:14.071Z,67.10
2022-11-27T04:44:14.055Z,92.20
2022-11-27T04:45:14.044Z,83.50
2022-11-27T04:46:14.080Z,71.30
2022-11-27T04:47:14.026Z,70.80
2022-11-27T04:48:14.018Z,71.60
2022-11-27T04:49:14.013Z,67.60
2022-11-27T04:50:14.120Z,77.20
2022-11-27T04:51:14.002Z,97.90
2022-11-27T04:52:14.019Z,84.00
2022-11-27T04:53:13.971Z,82.90
2022-11-27T04:54:13.947Z,79.20
2022-11-27T04:55:13.933Z,86.40
2022-11-27T04:56:13.923Z,80.70
2022-11-27T04:57:13.910Z,66.70
2022-11-27T04:58:13.899Z,95.60
2022-11-27T04:59:13.889Z,83.90
2022-11-27T05:00:13.882Z,142.80
2022-11-27T05:01:13.907Z,104.50
2022-11-27T05:02:13.856Z,89.10
2022-11-27T05:03:13.936Z,105.50
2022-11-27T05:04:13.830Z,116.90
2022-11-27T05:05:13.822Z,96.20
2022-11-27T05:06:13.928Z,75.20
2022-11-27T05:07:13.863Z,82.90
2022-11-27T05:08:13.787Z,94.80
2022-11-27T05:09:13.775Z,136.10
2022-11-27T05:10:13.766Z,82.90
2022-11-27T05:11:13.752Z,79.40
2022-11-27T05:12:13.741Z,70.60
2022-11-27T05:13:13.731Z,103.70
2022-11-27T05:14:13.716Z,87.00
2022-11-27T05:15:13.710Z,106.70
2022-11-27T05:16:13.749Z,120.30
2022-11-27T05:17:13.691Z,74.20
2022-11-27T05:18:13.672Z,84.40
2022-11-27T05:19:13.663Z,88.70
2022-11-27T05:20:13.649Z,125.40
2022-11-27T05:21:13.641Z,111.10
2022-11-27T05:22:13.746Z,91.10
2022-11-27T05:23:13.618Z,97.40
2022-11-27T05:24:13.606Z,79.10
2022-11-27T05:25:13.596Z,73.70
2022-11-27T05:26:13.582Z,84.00
2022-11-27T05:27:13.573Z,81.40
2022-11-27T05:28:13.558Z,54.70
2022-11-27T05:29:13.549Z,74.40
2022-11-27T05:30:13.536Z,72.80
2022-11-27T05:31:13.553Z,55.00
2022-11-27T05:32:13.513Z,76.00
2022-11-27T05:33:13.506Z,73.60
2022-11-27T05:34:13.491Z,119.20
2022-11-27T05:35:13.486Z,73.20
2022-11-27T05:36:13.471Z,85.10
2022-11-27T05:37:19.031Z,88.70
2022-11-27T05:38:13.562Z,91.20
2022-11-27T05:39:13.437Z,70.00
2022-11-27T05:40:13.426Z,95.60
2022-11-27T05:41:13.416Z,96.50
2022-11-27T05:42:13.403Z,79.10
2022-11-27T05:43:13.393Z,98.40
2022-11-27T05:44:13.385Z,101.80
2022-11-27T05:45:13.370Z,91.40
2022-11-27T05:46:13.412Z,99.90
2022-11-27T05:47:13.349Z,71.30
2022-11-27T05:48:13.335Z,89.90
2022-11-27T05:49:13.330Z,98.50
2022-11-27T05:50:13.312Z,77.60
2022-11-27T05:51:13.302Z,63.40
2022-11-27T05:52:13.291Z,75.50
2022-11-27T05:53:13.284Z,88.30
2022-11-27T05:54:13.388Z,112.00
2022-11-27T05:55:13.257Z,64.50
2022-11-27T05:56:13.253Z,81.60
2022-11-27T05:57:13.243Z,114.40
2022-11-27T05:58:13.225Z,145.90
2022-11-27T05:59:13.224Z,90.90
2022-11-27T06:00:13.201Z,76.80
2022-11-27T06:01:13.193Z,68.30
2022-11-27T06:02:18.101Z,72.40
2022-11-27T06:03:13.226Z,79.50
2022-11-27T06:04:13.155Z,77.30
2022-11-27T06:05:13.148Z,89.60
2022-11-27T06:06:13.138Z,114.10
2022-11-27T06:07:13.186Z,117.30
2022-11-27T06:08:13.111Z,61.40
2022-11-27T06:09:13.743Z,65.30
2022-11-27T06:10:13.209Z,66.60
2022-11-27T06:11:13.082Z,82.40
2022-11-27T06:12:13.066Z,88.80
2022-11-27T06:13:13.057Z,96.90
2022-11-27T06:14:13.046Z,131.40
2022-11-27T06:15:13.035Z,109.80
2022-11-27T06:16:13.093Z,127.70
2022-11-27T06:17:13.012Z,127.90
2022-11-27T06:18:13.005Z,117.20
2022-11-27T06:19:12.990Z,82.20
2022-11-27T06:20:12.980Z,110.50
2022-11-27T06:21:12.968Z,71.00
2022-11-27T06:22:12.956Z,62.00
2022-11-27T06:23:12.945Z,71.50
2022-11-27T06:24:12.933Z,102.50
2022-11-27T06:25:12.923Z,92.70
2022-11-27T06:26:13.033Z,92.60
2022-11-27T06:27:12.900Z,81.00
2022-11-27T06:28:12.890Z,76.50
2022-11-27T06:29:12.878Z,94.80
2022-11-27T06:30:12.881Z,91.40
2022-11-27T06:31:17.458Z,96.70
2022-11-27T06:32:12.938Z,89.70
2022-11-27T06:33:12.835Z,92.80
2022-11-27T06:34:12.822Z,80.70
2022-11-27T06:35:12.810Z,106.00
2022-11-27T06:36:12.799Z,68.20
2022-11-27T06:37:13.474Z,83.20
2022-11-27T06:38:12.777Z,86.50
2022-11-27T06:39:12.772Z,120.30
2022-11-27T06:40:12.904Z,94.40
2022-11-27T06:41:12.746Z,83.20
2022-11-27T06:42:12.969Z,74.80
2022-11-27T06:43:12.723Z,74.80
2022-11-27T06:44:12.711Z,77.70
2022-11-27T06:45:12.699Z,86.50
2022-11-27T06:46:12.796Z,77.90
2022-11-27T06:47:12.679Z,72.00
2022-11-27T06:48:12.667Z,57.50
2022-11-27T06:49:12.653Z,61.50
2022-11-27T06:50:12.647Z,83.50
2022-11-27T06:51:12.632Z,68.70
2022-11-27T06:52:12.621Z,56.30
2022-11-27T06:53:12.608Z,56.10
2022-11-27T06:54:12.597Z,58.80
2022-11-27T06:55:12.586Z,54.60
2022-11-27T06:56:12.581Z,74.70
2022-11-27T06:57:12.562Z,63.70
2022-11-27T06:58:12.671Z,59.50
2022-11-27T06:59:12.541Z,60.20
2022-11-27T07:00:12.532Z,66.30
2022-11-27T07:01:12.596Z,59.00
2022-11-27T07:02:12.591Z,51.20
2022-11-27T07:03:12.498Z,78.80
2022-11-27T07:04:12.486Z,111.70
2022-11-27T07:05:12.473Z,83.10
2022-11-27T07:06:12.465Z,92.20
2022-11-27T07:07:12.449Z,67.20
2022-11-27T07:08:12.446Z,75.10
2022-11-27T07:09:12.428Z,87.40
2022-11-27T07:10:12.427Z,101.90
2022-11-27T07:11:12.403Z,94.10
2022-11-27T07:12:12.397Z,93.20
2022-11-27T07:13:12.384Z,84.80
2022-11-27T07:14:12.493Z,91.10
2022-11-27T07:15:12.364Z,81.20
2022-11-27T07:16:12.397Z,79.60
2022-11-27T07:17:12.339Z,69.40
2022-11-27T07:18:12.331Z,93.70
2022-11-27T07:19:12.316Z,81.50
2022-11-27T07:20:12.309Z,75.10
2022-11-27T07:21:12.296Z,98.80
2022-11-27T07:22:12.284Z,84.10
2022-11-27T07:23:12.276Z,97.70
2022-11-27T07:24:12.262Z,83.20
2022-11-27T07:25:12.253Z,60.50
2022-11-27T07:26:12.246Z,87.10
2022-11-27T07:27:12.229Z,58.40
2022-11-27T07:28:16.019Z,67.20
2022-11-27T07:29:12.207Z,78.60
2022-11-27T07:30:12.318Z,74.70
2022-11-27T07:31:12.256Z,65.50
2022-11-27T07:32:12.172Z,60.70
2022-11-27T07:33:12.160Z,76.70
2022-11-27T07:34:17.138Z,72.70
2022-11-27T07:35:13.172Z,61.80
2022-11-27T07:36:12.127Z,62.70
2022-11-27T07:37:12.134Z,63.90
2022-11-27T07:38:12.106Z,62.70
2022-11-27T07:39:12.115Z,59.20
2022-11-27T07:40:13.071Z,85.70
2022-11-27T07:41:12.071Z,64.70
2022-11-27T07:42:36.919Z,76.00
2022-11-27T07:43:13.072Z,68.10
2022-11-27T07:44:12.041Z,61.90
2022-11-27T07:45:12.025Z,62.40
2022-11-27T07:46:12.240Z,74.90
2022-11-27T07:47:12.005Z,70.10
2022-11-27T07:48:11.995Z,63.60
2022-11-27T07:49:11.984Z,76.30
2022-11-27T07:50:11.974Z,87.10
2022-11-27T07:51:11.960Z,70.60
2022-11-27T07:52:11.948Z,89.70
2022-11-27T07:53:11.936Z,94.00
2022-11-27T07:54:11.926Z,89.00
2022-11-27T07:55:11.915Z,98.40
2022-11-27T07:56:11.909Z,97.10
2022-11-27T07:57:11.891Z,73.60
2022-11-27T07:58:11.879Z,89.40
2022-11-27T07:59:11.870Z,94.40
2022-11-27T08:00:11.867Z,90.70
2022-11-27T08:01:11.928Z,71.60
2022-11-27T08:02:11.954Z,68.90
2022-11-27T08:03:11.826Z,102.40
2022-11-27T08:04:11.874Z,93.50
2022-11-27T08:05:13.164Z,79.70
2022-11-27T08:06:11.793Z,86.40
2022-11-27T08:07:11.821Z,62.80
2022-11-27T08:08:11.767Z,90.10
2022-11-27T08:09:11.758Z,73.60
2022-11-27T08:10:11.757Z,56.50
2022-11-27T08:11:11.736Z,64.20
2022-11-27T08:12:11.725Z,65.50
2022-11-27T08:13:11.727Z,58.00
2022-11-27T08:14:11.719Z,76.70
2022-11-27T08:15:11.703Z,77.00
2022-11-27T08:16:11.800Z,65.90
2022-11-27T08:17:11.672Z,59.80
2022-11-27T08:18:11.777Z,78.00
2022-11-27T08:19:11.643Z,89.20
2022-11-27T08:20:11.647Z,74.50
2022-11-27T08:21:11.653Z,67.20
2022-11-27T08:22:11.612Z,66.90
2022-11-27T08:23:11.601Z,66.90
2022-11-27T08:24:11.591Z,88.40
2022-11-27T08:25:11.579Z,69.80
2022-11-27T08:26:11.596Z,70.60
2022-11-27T08:27:11.558Z,93.70
2022-11-27T08:28:11.547Z,93.20
2022-11-27T08:29:11.531Z,70.60
2022-11-27T08:30:11.525Z,59.30
2022-11-27T08:31:11.592Z,89.70
2022-11-27T08:32:11.571Z,100.50
2022-11-27T08:33:11.494Z,95.10
2022-11-27T08:34:11.599Z,91.30
2022-11-27T08:35:11.468Z,80.10
2022-11-27T08:36:16.292Z,81.00
2022-11-27T08:37:11.449Z,64.50
2022-11-27T08:38:11.439Z,58.40
2022-11-27T08:39:11.428Z,67.20
2022-11-27T08:40:11.420Z,62.50
2022-11-27T08:41:11.408Z,60.10
2022-11-27T08:42:11.393Z,53.20
2022-11-27T08:43:11.381Z,53.90
2022-11-27T08:44:11.374Z,68.60
2022-11-27T08:45:11.359Z,61.60
2022-11-27T08:46:11.409Z,72.50
2022-11-27T08:47:11.335Z,67.90
2022-11-27T08:48:11.326Z,74.60
2022-11-27T08:49:11.319Z,79.60
2022-11-27T08:50:11.431Z,54.00
2022-11-27T08:51:11.294Z,61.80
2022-11-27T08:52:11.286Z,70.90
2022-11-27T08:53:11.339Z,66.60
2022-11-27T08:54:11.294Z,71.40
2022-11-27T08:55:11.251Z,78.00
2022-11-27T08:56:11.248Z,72.10
2022-11-27T08:57:11.233Z,106.50
2022-11-27T08:58:11.222Z,60.60
2022-11-27T08:59:11.213Z,75.10
2022-11-27T09:00:11.202Z,100.90
2022-11-27T09:01:11.284Z,74.90
2022-11-27T09:02:11.194Z,82.30
2022-11-27T09:03:11.163Z,76.80
2022-11-27T09:04:11.296Z,55.50
2022-11-27T09:05:11.144Z,71.60
2022-11-27T09:06:11.258Z,100.50
2022-11-27T09:07:11.153Z,71.10
2022-11-27T09:08:11.113Z,59.60
2022-11-27T09:09:11.099Z,61.20
2022-11-27T09:10:11.097Z,48.20
2022-11-27T09:11:11.071Z,62.50
2022-11-27T09:12:11.065Z,55.30
2022-11-27T09:13:11.055Z,55.20
2022-11-27T09:14:11.040Z,64.40
2022-11-27T09:15:11.028Z,55.10
2022-11-27T09:16:11.060Z,62.70
2022-11-27T09:17:11.008Z,60.10
2022-11-27T09:18:10.998Z,57.10
2022-11-27T09:19:10.984Z,51.30
2022-11-27T09:20:10.983Z,53.80
2022-11-27T09:21:10.961Z,47.20
2022-11-27T09:22:12.090Z,53.80
2022-11-27T09:23:14.358Z,45.40
2022-11-27T09:24:10.931Z,61.30
2022-11-27T09:25:10.916Z,48.20
2022-11-27T09:26:10.907Z,67.30
2022-11-27T09:27:10.891Z,55.30
2022-11-27T09:28:10.889Z,46.60
2022-11-27T09:29:10.872Z,42.00
2022-11-27T09:30:10.861Z,45.90
2022-11-27T09:31:10.853Z,48.60
2022-11-27T09:32:10.921Z,52.60
2022-11-27T09:33:10.827Z,45.70
2022-11-27T09:34:10.815Z,44.30
2022-11-27T09:35:10.833Z,37.20
2022-11-27T09:36:10.794Z,36.30
2022-11-27T09:37:10.783Z,47.70
2022-11-27T09:38:10.941Z,47.50
2022-11-27T09:39:10.760Z,36.50
2022-11-27T09:40:10.753Z,41.50
2022-11-27T09:41:10.743Z,40.00
2022-11-27T09:42:10.728Z,50.30
2022-11-27T09:43:10.721Z,47.10
2022-11-27T09:44:10.712Z,35.70
2022-11-27T09:45:10.697Z,45.00
2022-11-27T09:46:10.723Z,38.30
2022-11-27T09:47:10.673Z,39.80
2022-11-27T09:48:10.664Z,41.30
2022-11-27T09:49:10.852Z,37.10
2022-11-27T09:50:10.641Z,40.50
2022-11-27T09:51:10.628Z,48.40
2022-11-27T09:52:10.619Z,37.50
2022-11-27T09:53:10.603Z,39.20
2022-11-27T09:54:10.727Z,38.10
2022-11-27T09:55:10.598Z,46.70
2022-11-27T09:56:10.572Z,34.50
2022-11-27T09:57:10.557Z,36.70
2022-11-27T09:58:10.548Z,33.20
2022-11-27T09:59:10.537Z,41.90
2022-11-27T10:00:10.526Z,51.40
2022-11-27T10:01:10.562Z,36.60
2022-11-27T10:02:10.635Z,36.70
2022-11-27T10:03:10.546Z,33.50
2022-11-27T10:04:10.595Z,37.30
2022-11-27T10:05:14.607Z,34.50
2022-11-27T10:06:10.457Z,37.10
2022-11-27T10:07:10.502Z,32.40
2022-11-27T10:08:10.871Z,39.20
2022-11-27T10:09:10.426Z,41.90
2022-11-27T10:10:10.565Z,34.40
2022-11-27T10:11:10.402Z,33.70
2022-11-27T10:12:10.393Z,35.80
2022-11-27T10:13:10.378Z,36.80
2022-11-27T10:14:10.388Z,40.90
2022-11-27T10:15:10.360Z,33.10
2022-11-27T10:16:10.387Z,36.70
2022-11-27T10:17:10.386Z,34.00
2022-11-27T10:18:10.329Z,32.60
2022-11-27T10:19:10.312Z,34.70
2022-11-27T10:20:10.303Z,32.80
2022-11-27T10:21:10.292Z,33.00
2022-11-27T10:22:10.279Z,29.20
2022-11-27T10:23:10.276Z,33.60
2022-11-27T10:24:10.261Z,34.40
2022-11-27T10:25:10.247Z,34.00
2022-11-27T10:26:10.355Z,36.40
2022-11-27T10:27:10.242Z,38.10
2022-11-27T10:28:10.230Z,38.10
2022-11-27T10:29:10.199Z,32.20
2022-11-27T10:30:10.192Z,37.90
2022-11-27T10:31:10.183Z,36.30
2022-11-27T10:32:26.807Z,32.10
2022-11-27T10:33:10.184Z,34.90
2022-11-27T10:34:10.148Z,32.40
2022-11-27T10:35:10.131Z,34.20
2022-11-27T10:36:10.125Z,36.70
2022-11-27T10:37:10.111Z,28.30
2022-11-27T10:38:10.106Z,30.90
2022-11-27T10:39:10.131Z,33.90
2022-11-27T10:40:10.080Z,38.10
2022-11-27T10:41:18.671Z,35.00
2022-11-27T10:42:11.197Z,32.70
2022-11-27T10:43:10.050Z,34.10
2022-11-27T10:44:10.029Z,33.80
2022-11-27T10:45:10.021Z,34.50
2022-11-27T10:46:10.069Z,38.90
2022-11-27T10:47:09.999Z,41.20
2022-11-27T10:48:10.160Z,30.50
2022-11-27T10:49:09.977Z,30.70
2022-11-27T10:50:09.991Z,27.60
2022-11-27T10:51:09.955Z,31.40
2022-11-27T10:52:09.944Z,31.80
2022-11-27T10:53:09.937Z,27.20
2022-11-27T10:54:09.920Z,29.60
2022-11-27T10:55:09.917Z,31.80
2022-11-27T10:56:09.901Z,34.20
2022-11-27T10:57:09.887Z,31.90
2022-11-27T10:58:09.993Z,28.90
2022-11-27T10:59:09.889Z,28.90
2022-11-27T11:00:09.909Z,30.00
2022-11-27T11:01:10.021Z,25.10
2022-11-27T11:02:09.871Z,33.10
2022-11-27T11:03:09.822Z,31.30
2022-11-27T11:04:35.802Z,28.50
2022-11-27T11:05:34.666Z,29.30
2022-11-27T11:06:26.654Z,27.90
2022-11-27T11:07:10.849Z,29.70
2022-11-27T11:08:09.764Z,28.60
2022-11-27T11:09:09.756Z,30.60
2022-11-27T11:10:09.749Z,29.20
2022-11-27T11:11:09.732Z,33.70
2022-11-27T11:12:09.719Z,27.60
2022-11-27T11:13:09.710Z,26.70
2022-11-27T11:14:09.818Z,27.40
2022-11-27T11:15:09.686Z,31.40
2022-11-27T11:16:13.434Z,26.90
2022-11-27T11:17:09.686Z,30.10
2022-11-27T11:18:09.685Z,29.70
2022-11-27T11:19:09.644Z,29.60
2022-11-27T11:20:09.629Z,29.80
2022-11-27T11:21:09.629Z,30.30
2022-11-27T11:22:13.297Z,28.10
2022-11-27T11:23:09.601Z,28.70
2022-11-27T11:24:09.587Z,25.20
2022-11-27T11:25:09.581Z,26.30
2022-11-27T11:26:09.576Z,25.00
2022-11-27T11:27:09.564Z,25.70
2022-11-27T11:28:09.540Z,34.60
2022-11-27T11:29:09.530Z,28.10
2022-11-27T11:30:09.637Z,26.40
2022-11-27T11:31:09.511Z,28.90
2022-11-27T11:32:09.640Z,26.70
2022-11-27T11:33:09.505Z,27.10
2022-11-27T11:34:09.541Z,27.80
2022-11-27T11:35:09.465Z,25.60
2022-11-27T11:36:09.453Z,28.10
2022-11-27T11:37:09.456Z,28.90
2022-11-27T11:38:09.427Z,23.60
2022-11-27T11:39:09.423Z,25.20
2022-11-27T11:40:14.607Z,24.30
2022-11-27T11:41:10.418Z,24.90
2022-11-27T11:42:09.389Z,23.10
2022-11-27T11:43:09.384Z,27.50
2022-11-27T11:44:09.357Z,23.70
2022-11-27T11:45:09.349Z,25.70
2022-11-27T11:46:09.553Z,27.10
2022-11-27T11:47:09.366Z,25.30
2022-11-27T11:48:09.323Z,21.40
2022-11-27T11:49:09.336Z,28.60
2022-11-27T11:50:09.307Z,26.10
2022-11-27T11:51:09.295Z,26.30
2022-11-27T11:52:09.295Z,28.40
2022-11-27T11:53:09.271Z,25.90
2022-11-27T11:54:09.265Z,22.90
2022-11-27T11:55:09.285Z,25.20
2022-11-27T11:56:09.248Z,26.10
2022-11-27T11:57:09.225Z,25.40
2022-11-27T11:58:09.204Z,29.50
2022-11-27T11:59:09.199Z,30.40
2022-11-27T12:00:09.182Z,31.70
2022-11-27T12:01:26.336Z,24.00
2022-11-27T12:02:10.375Z,28.30
2022-11-27T12:03:09.148Z,29.70
2022-11-27T12:04:09.205Z,25.50
2022-11-27T12:05:09.128Z,22.10
2022-11-27T12:06:09.127Z,26.30
2022-11-27T12:07:09.128Z,25.00
2022-11-27T12:08:09.199Z,25.00
2022-11-27T12:09:09.082Z,23.30
2022-11-27T12:10:09.069Z,25.10
2022-11-27T12:11:09.058Z,25.10
2022-11-27T12:12:09.046Z,24.50
2022-11-27T12:13:09.036Z,22.60
2022-11-27T12:14:09.025Z,21.70
2022-11-27T12:15:09.018Z,23.40
2022-11-27T12:16:09.060Z,23.00
2022-11-27T12:17:08.994Z,25.50
2022-11-27T12:18:09.099Z,25.50
2022-11-27T12:19:08.976Z,23.80
2022-11-27T12:20:08.957Z,24.50
2022-11-27T12:21:08.951Z,24.70
2022-11-27T12:22:08.934Z,22.40
2022-11-27T12:23:08.925Z,22.70
2022-11-27T12:24:08.911Z,27.20
2022-11-27T12:25:08.904Z,24.20
2022-11-27T12:26:08.886Z,21.90
2022-11-27T12:27:08.878Z,20.90
2022-11-27T12:28:08.868Z,22.60
2022-11-27T12:29:08.865Z,24.00
2022-11-27T12:30:09.022Z,20.10
2022-11-27T12:31:08.889Z,27.00
2022-11-27T12:32:08.823Z,21.60
2022-11-27T12:33:08.812Z,23.90
2022-11-27T12:34:08.920Z,21.00
2022-11-27T12:35:08.788Z,23.40
2022-11-27T12:36:08.777Z,21.80
2022-11-27T12:37:13.607Z,23.00
2022-11-27T12:38:08.754Z,24.50
2022-11-27T12:39:08.743Z,19.80
2022-11-27T12:40:08.748Z,18.00
2022-11-27T12:41:08.729Z,23.90
2022-11-27T12:42:08.718Z,24.50
2022-11-27T12:43:08.698Z,21.30
2022-11-27T12:44:08.684Z,21.60
2022-11-27T12:45:08.695Z,19.70
2022-11-27T12:46:08.722Z,22.60
2022-11-27T12:47:08.697Z,22.10
2022-11-27T12:48:08.749Z,20.90
2022-11-27T12:49:08.740Z,19.70
2022-11-27T12:50:13.904Z,21.20
2022-11-27T12:51:08.947Z,22.90